Time,TemperatureF,DewpointF,PressureIn,WindDirection,WindDirectionDegrees,WindSpeedMPH,WindSpeedGustMPH,Humidity,HourlyPrecipIn,Conditions,Clouds,dailyrainin,SoftwareType,DateUTC
2013-10-16 00:00:00,60.6,59.2,29.88,WSW,244,4.0,4.0,95,0.00,,,0.00,Wunderground v.1.15,2013-10-16 04:00:00,
2013-10-16 00:05:00,60.6,59.2,29.88,WSW,244,3.0,6.0,95,0.00,,,0.00,Wunderground v.1.15,2013-10-16 04:05:00,
2013-10-16 00:10:00,60.8,59.4,29.87,WSW,250,4.0,4.0,95,0.00,,,0.00,Wunderground v.1.15,2013-10-16 04:10:00,
2013-10-16 00:15:00,60.8,59.4,29.87,SW,224,4.0,4.0,95,0.00,,,0.00,Wunderground v.1.15,2013-10-16 04:15:00,
2013-10-16 00:20:00,60.8,59.4,29.87,SW,233,4.0,4.0,95,0.00,,,0.00,Wunderground v.1.15,2013-10-16 04:20:00,
2013-10-16 00:25:00,60.8,59.4,29.87,WSW,249,4.0,4.0,95,0.00,,,0.00,Wunderground v.1.15,2013-10-16 04:25:00,
2013-10-16 00:30:00,60.9,59.5,29.87,SW,229,4.0,4.0,95,0.00,,,0.00,Wunderground v.1.15,2013-10-16 04:30:00,
2013-10-16 00:40:00,60.9,59.5,29.87,WNW,285,4.0,4.0,95,0.00,,,0.00,Wunderground v.1.15,2013-10-16 04:40:00,
2013-10-16 00:45:00,60.8,59.4,29.87,SW,219,4.0,5.0,95,0.00,,,0.00,Wunderground v.1.15,2013-10-16 04:45:00,
2013-10-16 00:50:00,60.8,59.4,29.86,SW,226,4.0,6.0,95,0.00,,,0.00,Wunderground v.1.15,2013-10-16 04:50:00,
2013-10-16 00:55:00,60.8,59.4,29.86,SW,214,5.0,6.0,95,0.00,,,0.00,Wunderground v.1.15,2013-10-16 04:55:00,
2013-10-16 01:00:00,60.7,59.3,29.86,WSW,239,5.0,5.0,95,0.00,,,0.00,Wunderground v.1.15,2013-10-16 05:00:00,
2013-10-16 01:10:00,60.7,59.3,29.86,SSW,210,4.0,4.0,95,0.00,,,0.00,Wunderground v.1.15,2013-10-16 05:10:00,
2013-10-16 01:15:00,60.7,59.3,29.86,SW,219,3.0,5.0,95,0.00,,,0.00,Wunderground v.1.15,2013-10-16 05:15:00,
2013-10-16 01:20:00,60.6,59.2,29.86,SW,218,3.0,4.0,95,0.00,,,0.00,Wunderground v.1.15,2013-10-16 05:20:00,
2013-10-16 01:25:00,60.5,59.1,29.86,West,271,3.0,7.0,95,0.00,,,0.00,Wunderground v.1.15,2013-10-16 05:25:00,
2013-10-16 01:30:00,60.5,58.8,29.86,NNW,333,4.0,4.0,94,0.00,,,0.00,Wunderground v.1.15,2013-10-16 05:30:00,
2013-10-16 01:35:00,60.3,58.6,29.86,WSW,252,5.0,9.0,94,0.00,,,0.00,Wunderground v.1.15,2013-10-16 05:35:00,
2013-10-16 01:45:00,60.1,57.8,29.87,WNW,295,5.0,6.0,92,0.00,,,0.00,Wunderground v.1.15,2013-10-16 05:45:00,
2013-10-16 01:50:00,60.0,58.0,29.87,WSW,248,4.0,4.0,93,0.00,,,0.00,Wunderground v.1.15,2013-10-16 05:50:00,
2013-10-16 01:55:00,59.8,57.8,29.87,West,263,2.0,4.0,93,0.00,,,0.00,Wunderground v.1.15,2013-10-16 05:55:00,
2013-10-16 02:00:00,59.6,57.0,29.88,WNW,297,5.0,13.0,91,0.00,,,0.00,Wunderground v.1.15,2013-10-16 06:00:00,
2013-10-16 02:10:00,57.7,53.9,29.88,WNW,288,8.0,8.0,87,0.00,,,0.00,Wunderground v.1.15,2013-10-16 06:10:00,
2013-10-16 02:15:00,57.2,53.7,29.89,WNW,303,7.0,8.0,88,0.00,,,0.00,Wunderground v.1.15,2013-10-16 06:15:00,
2013-10-16 02:20:00,56.8,53.3,29.89,NW,308,7.0,8.0,88,0.00,,,0.00,Wunderground v.1.15,2013-10-16 06:20:00,
2013-10-16 02:25:00,56.5,53.3,29.89,WNW,293,6.0,8.0,89,0.00,,,0.00,Wunderground v.1.15,2013-10-16 06:25:00,
2013-10-16 02:35:00,56.2,52.7,29.89,WNW,295,6.0,8.0,88,0.00,,,0.00,Wunderground v.1.15,2013-10-16 06:35:00,
2013-10-16 02:40:00,56.1,52.6,29.89,NNW,338,6.0,6.0,88,0.00,,,0.00,Wunderground v.1.15,2013-10-16 06:40:00,
2013-10-16 02:45:00,55.9,52.1,29.89,NW,315,6.0,6.0,87,0.00,,,0.00,Wunderground v.1.15,2013-10-16 06:45:00,
2013-10-16 02:50:00,55.8,52.3,29.89,NW,308,5.0,5.0,88,0.00,,,0.00,Wunderground v.1.15,2013-10-16 06:50:00,
2013-10-16 02:55:00,55.6,52.1,29.89,WNW,301,4.0,5.0,88,0.00,,,0.00,Wunderground v.1.15,2013-10-16 06:55:00,
2013-10-16 03:00:00,55.4,51.9,29.89,NW,315,4.0,4.0,88,0.00,,,0.00,Wunderground v.1.15,2013-10-16 07:00:00,
2013-10-16 03:10:00,54.9,51.4,29.89,West,280,2.0,2.0,88,0.00,,,0.00,Wunderground v.1.15,2013-10-16 07:10:00,
2013-10-16 03:20:00,54.1,50.9,29.89,West,281,1.0,1.0,89,0.00,,,0.00,Wunderground v.1.15,2013-10-16 07:20:00,
2013-10-16 03:25:00,53.6,50.7,29.88,WNW,288,1.0,1.0,90,0.00,,,0.00,Wunderground v.1.15,2013-10-16 07:25:00,
2013-10-16 03:30:00,53.1,50.5,29.89,West,269,0.0,1.0,91,0.00,,,0.00,Wunderground v.1.15,2013-10-16 07:30:00,
2013-10-16 03:35:00,52.8,50.5,29.88,WNW,287,0.0,1.0,92,0.00,,,0.00,Wunderground v.1.15,2013-10-16 07:35:00,
2013-10-16 03:40:00,52.7,50.4,29.88,WNW,286,1.0,2.0,92,0.00,,,0.00,Wunderground v.1.15,2013-10-16 07:40:00,
2013-10-16 03:50:00,52.4,49.8,29.88,West,271,1.0,1.0,91,0.00,,,0.00,Wunderground v.1.15,2013-10-16 07:50:00,
2013-10-16 03:55:00,52.2,49.7,29.88,WNW,290,1.0,1.0,91,0.00,,,0.00,Wunderground v.1.15,2013-10-16 07:55:00,
2013-10-16 04:00:00,51.9,49.4,29.88,West,274,1.0,1.0,91,0.00,,,0.00,Wunderground v.1.15,2013-10-16 08:00:00,
2013-10-16 04:10:00,51.4,48.9,29.88,West,276,0.0,0.0,91,0.00,,,0.00,Wunderground v.1.15,2013-10-16 08:10:00,
2013-10-16 04:15:00,51.2,48.7,29.88,West,262,0.0,0.0,91,0.00,,,0.00,Wunderground v.1.15,2013-10-16 08:15:00,
2013-10-16 04:25:00,50.9,48.7,29.88,West,260,0.0,0.0,92,0.00,,,0.00,Wunderground v.1.15,2013-10-16 08:25:00,
2013-10-16 04:30:00,50.7,48.5,29.88,WSW,256,0.0,0.0,92,0.00,,,0.00,Wunderground v.1.15,2013-10-16 08:30:00,
2013-10-16 04:35:00,50.6,48.4,29.88,WSW,239,0.0,1.0,92,0.00,,,0.00,Wunderground v.1.15,2013-10-16 08:35:00,
2013-10-16 04:40:00,50.5,48.3,29.88,West,262,0.0,1.0,92,0.00,,,0.00,Wunderground v.1.15,2013-10-16 08:40:00,
2013-10-16 04:45:00,50.4,48.2,29.88,WNW,295,1.0,2.0,92,0.00,,,0.00,Wunderground v.1.15,2013-10-16 08:45:00,
2013-10-16 04:55:00,49.8,47.6,29.88,West,266,0.0,1.0,92,0.00,,,0.00,Wunderground v.1.15,2013-10-16 08:55:00,
2013-10-16 05:00:00,49.6,47.4,29.88,WSW,248,0.0,1.0,92,0.00,,,0.00,Wunderground v.1.15,2013-10-16 09:00:00,
2013-10-16 05:10:00,49.3,47.1,29.87,WSW,257,1.0,1.0,92,0.00,,,0.00,Wunderground v.1.15,2013-10-16 09:10:00,
2013-10-16 05:15:00,49.1,46.9,29.87,West,263,1.0,1.0,92,0.00,,,0.00,Wunderground v.1.15,2013-10-16 09:15:00,
2013-10-16 05:20:00,49.0,46.8,29.87,West,280,1.0,1.0,92,0.00,,,0.00,Wunderground v.1.15,2013-10-16 09:20:00,
2013-10-16 05:30:00,48.8,46.6,29.88,WSW,257,1.0,3.0,92,0.00,,,0.00,Wunderground v.1.15,2013-10-16 09:30:00,
2013-10-16 05:35:00,48.7,46.2,29.88,West,264,2.0,3.0,91,0.00,,,0.00,Wunderground v.1.15,2013-10-16 09:35:00,
2013-10-16 05:40:00,48.5,46.0,29.88,WNW,285,1.0,2.0,91,0.00,,,0.00,Wunderground v.1.15,2013-10-16 09:40:00,
2013-10-16 05:45:00,48.5,46.0,29.88,West,263,2.0,2.0,91,0.00,,,0.00,Wunderground v.1.15,2013-10-16 09:45:00,
2013-10-16 05:50:00,48.4,45.9,29.88,WSW,252,2.0,2.0,91,0.00,,,0.00,Wunderground v.1.15,2013-10-16 09:50:00,
2013-10-16 05:55:00,48.5,46.0,29.88,West,276,2.0,2.0,91,0.00,,,0.00,Wunderground v.1.15,2013-10-16 09:55:00,
2013-10-16 06:00:00,48.3,45.8,29.88,West,276,1.0,1.0,91,0.00,,,0.00,Wunderground v.1.15,2013-10-16 10:00:00,
2013-10-16 06:10:00,47.7,45.2,29.88,West,259,0.0,0.0,91,0.00,,,0.00,Wunderground v.1.15,2013-10-16 10:10:00,
2013-10-16 06:15:00,47.5,45.3,29.88,SW,221,0.0,2.0,92,0.00,,,0.00,Wunderground v.1.15,2013-10-16 10:15:00,
2013-10-16 06:20:00,47.3,45.1,29.88,WSW,250,1.0,1.0,92,0.00,,,0.00,Wunderground v.1.15,2013-10-16 10:20:00,
2013-10-16 06:30:00,47.0,44.5,29.88,West,263,1.0,1.0,91,0.00,,,0.00,Wunderground v.1.15,2013-10-16 10:30:00,
2013-10-16 06:35:00,46.9,44.4,29.88,WSW,253,1.0,1.0,91,0.00,,,0.00,Wunderground v.1.15,2013-10-16 10:35:00,
2013-10-16 06:40:00,46.7,43.9,29.88,West,274,2.0,3.0,90,0.00,,,0.00,Wunderground v.1.15,2013-10-16 10:40:00,
2013-10-16 06:45:00,46.5,44.0,29.88,SW,215,2.0,3.0,91,0.00,,,0.00,Wunderground v.1.15,2013-10-16 10:45:00,
2013-10-16 06:50:00,46.4,43.6,29.89,West,266,1.0,2.0,90,0.00,,,0.00,Wunderground v.1.15,2013-10-16 10:50:00,
2013-10-16 06:55:00,46.4,43.6,29.89,SSW,212,1.0,2.0,90,0.00,,,0.00,Wunderground v.1.15,2013-10-16 10:55:00,
2013-10-16 07:00:00,46.3,43.5,29.89,WSW,250,2.0,2.0,90,0.00,,,0.00,Wunderground v.1.15,2013-10-16 11:00:00,
2013-10-16 07:10:00,46.0,43.2,29.89,SW,226,2.0,2.0,90,0.00,,,0.00,Wunderground v.1.15,2013-10-16 11:10:00,
2013-10-16 07:15:00,45.7,42.9,29.89,West,281,1.0,2.0,90,0.00,,,0.00,Wunderground v.1.15,2013-10-16 11:15:00,
2013-10-16 07:20:00,45.6,42.8,29.89,WSW,249,1.0,1.0,90,0.00,,,0.00,Wunderground v.1.15,2013-10-16 11:20:00,
2013-10-16 07:25:00,45.4,42.6,29.89,WSW,245,1.0,1.0,90,0.00,,,0.00,Wunderground v.1.15,2013-10-16 11:25:00,
2013-10-16 07:35:00,45.1,42.6,29.89,West,276,2.0,2.0,91,0.00,,,0.00,Wunderground v.1.15,2013-10-16 11:35:00,
2013-10-16 07:40:00,44.9,42.4,29.89,West,274,1.0,3.0,91,0.00,,,0.00,Wunderground v.1.15,2013-10-16 11:40:00,
2013-10-16 07:45:00,44.7,42.2,29.89,West,280,1.0,3.0,91,0.00,,,0.00,Wunderground v.1.15,2013-10-16 11:45:00,
2013-10-16 07:50:00,44.5,42.3,29.89,West,264,2.0,2.0,92,0.00,,,0.00,Wunderground v.1.15,2013-10-16 11:50:00,
2013-10-16 07:55:00,44.5,42.3,29.90,West,259,2.0,3.0,92,0.00,,,0.00,Wunderground v.1.15,2013-10-16 11:55:00,
2013-10-16 08:00:00,44.4,42.2,29.90,West,265,2.0,2.0,92,0.00,,,0.00,Wunderground v.1.15,2013-10-16 12:00:00,
2013-10-16 08:10:00,44.3,42.1,29.90,SW,229,1.0,4.0,92,0.00,,,0.00,Wunderground v.1.15,2013-10-16 12:10:00,
2013-10-16 08:15:00,44.5,42.3,29.90,SW,233,2.0,4.0,92,0.00,,,0.00,Wunderground v.1.15,2013-10-16 12:15:00,
2013-10-16 08:20:00,44.8,42.6,29.90,WSW,240,2.0,2.0,92,0.00,,,0.00,Wunderground v.1.15,2013-10-16 12:20:00,
2013-10-16 08:25:00,44.9,42.4,29.91,West,271,3.0,3.0,91,0.00,,,0.00,Wunderground v.1.15,2013-10-16 12:25:00,
2013-10-16 08:30:00,45.1,42.6,29.91,WSW,254,3.0,4.0,91,0.00,,,0.00,Wunderground v.1.15,2013-10-16 12:30:00,
2013-10-16 08:40:00,45.3,42.5,29.91,West,278,3.0,6.0,90,0.00,,,0.00,Wunderground v.1.15,2013-10-16 12:40:00,
2013-10-16 08:45:00,45.3,42.5,29.91,SSW,207,4.0,6.0,90,0.00,,,0.00,Wunderground v.1.15,2013-10-16 12:45:00,
2013-10-16 08:50:00,45.5,42.7,29.91,WSW,253,4.0,6.0,90,0.00,,,0.00,Wunderground v.1.15,2013-10-16 12:50:00,
2013-10-16 08:55:00,45.7,42.9,29.91,SW,235,3.0,6.0,90,0.00,,,0.00,Wunderground v.1.15,2013-10-16 12:55:00,
2013-10-16 09:00:00,45.9,43.1,29.91,SW,221,3.0,4.0,90,0.00,,,0.00,Wunderground v.1.15,2013-10-16 13:00:00,
2013-10-16 09:10:00,46.3,43.2,29.91,South,187,4.0,4.0,89,0.00,,,0.00,Wunderground v.1.15,2013-10-16 13:10:00,
2013-10-16 09:15:00,46.4,43.3,29.91,SW,225,4.0,10.0,89,0.00,,,0.00,Wunderground v.1.15,2013-10-16 13:15:00,
2013-10-16 09:20:00,46.5,43.1,29.91,SW,221,5.0,5.0,88,0.00,,,0.00,Wunderground v.1.15,2013-10-16 13:20:00,
2013-10-16 09:25:00,46.7,43.3,29.91,WNW,284,5.0,8.0,88,0.00,,,0.00,Wunderground v.1.15,2013-10-16 13:25:00,
2013-10-16 09:30:00,46.8,43.1,29.92,West,270,6.0,6.0,87,0.00,,,0.00,Wunderground v.1.15,2013-10-16 13:30:00,
2013-10-16 09:35:00,47.1,43.4,29.91,WNW,290,6.0,11.0,87,0.00,,,0.00,Wunderground v.1.15,2013-10-16 13:35:00,
2013-10-16 09:40:00,47.1,43.1,29.92,SW,218,6.0,11.0,86,0.00,,,0.00,Wunderground v.1.15,2013-10-16 13:40:00,
2013-10-16 09:45:00,46.7,42.7,29.91,WSW,255,5.0,11.0,86,0.00,,,0.00,Wunderground v.1.15,2013-10-16 13:45:00,
2013-10-16 09:50:00,46.7,42.7,29.91,WNW,297,4.0,6.0,86,0.00,,,0.00,Wunderground v.1.15,2013-10-16 13:50:00,
2013-10-16 09:55:00,46.5,42.5,29.91,West,267,5.0,9.0,86,0.00,,,0.00,Wunderground v.1.15,2013-10-16 13:55:00,
2013-10-16 10:00:00,46.9,43.2,29.91,WSW,248,5.0,5.0,87,0.00,,,0.00,Wunderground v.1.15,2013-10-16 14:00:00,
2013-10-16 10:10:00,47.5,43.2,29.91,West,277,5.0,9.0,85,0.00,,,0.00,Wunderground v.1.15,2013-10-16 14:10:00,
2013-10-16 10:15:00,47.7,44.0,29.91,WSW,245,6.0,9.0,87,0.00,,,0.00,Wunderground v.1.15,2013-10-16 14:15:00,
2013-10-16 10:20:00,48.0,43.4,29.91,West,273,5.0,5.0,84,0.00,,,0.00,Wunderground v.1.15,2013-10-16 14:20:00,
2013-10-16 10:25:00,48.3,44.0,29.91,NW,305,5.0,8.0,85,0.00,,,0.00,Wunderground v.1.15,2013-10-16 14:25:00,
2013-10-16 10:30:00,48.8,44.5,29.91,SSW,203,5.0,5.0,85,0.00,,,0.00,Wunderground v.1.15,2013-10-16 14:30:00,
2013-10-16 10:35:00,49.1,44.2,29.91,West,269,5.0,8.0,83,0.00,,,0.00,Wunderground v.1.15,2013-10-16 14:35:00,
2013-10-16 10:40:00,49.0,43.7,29.91,SW,236,5.0,6.0,82,0.00,,,0.00,Wunderground v.1.15,2013-10-16 14:40:00,
2013-10-16 10:50:00,48.7,43.8,29.92,NW,325,5.0,5.0,83,0.00,,,0.00,Wunderground v.1.15,2013-10-16 14:50:00,
2013-10-16 10:55:00,48.6,43.7,29.92,West,270,6.0,6.0,83,0.00,,,0.00,Wunderground v.1.15,2013-10-16 14:55:00,
2013-10-16 11:00:00,48.6,44.0,29.92,SSE,159,6.0,6.0,84,0.00,,,0.00,Wunderground v.1.15,2013-10-16 15:00:00,
2013-10-16 11:10:00,48.6,43.7,29.92,South,191,6.0,15.0,83,0.00,,,0.00,Wunderground v.1.15,2013-10-16 15:10:00,
2013-10-16 11:20:00,48.7,43.8,29.92,WSW,242,7.0,8.0,83,0.00,,,0.00,Wunderground v.1.15,2013-10-16 15:20:00,
2013-10-16 11:25:00,48.8,43.9,29.92,SW,224,7.0,8.0,83,0.00,,,0.00,Wunderground v.1.15,2013-10-16 15:25:00,
2013-10-16 11:30:00,48.8,43.9,29.92,South,179,7.0,7.0,83,0.00,,,0.00,Wunderground v.1.15,2013-10-16 15:30:00,
2013-10-16 11:35:00,48.8,43.9,29.93,SW,236,6.0,7.0,83,0.00,,,0.00,Wunderground v.1.15,2013-10-16 15:35:00,
2013-10-16 11:40:00,48.7,44.1,29.92,WSW,250,6.0,8.0,84,0.00,,,0.00,Wunderground v.1.15,2013-10-16 15:40:00,
2013-10-16 11:45:00,48.6,43.7,29.92,SW,219,6.0,9.0,83,0.00,,,0.00,Wunderground v.1.15,2013-10-16 15:45:00,
2013-10-16 11:55:00,48.6,44.0,29.92,SW,220,6.0,7.0,84,0.00,,,0.00,Wunderground v.1.15,2013-10-16 15:55:00,
2013-10-16 12:00:00,48.5,43.9,29.93,WSW,243,5.0,5.0,84,0.00,,,0.00,Wunderground v.1.15,2013-10-16 16:00:00,
2013-10-16 12:10:00,48.5,43.9,29.93,NW,310,5.0,13.0,84,0.00,,,0.00,Wunderground v.1.15,2013-10-16 16:10:00,
2013-10-16 12:20:00,48.4,44.1,29.93,WSW,252,5.0,5.0,85,0.00,,,0.00,Wunderground v.1.15,2013-10-16 16:20:00,
2013-10-16 12:25:00,48.5,43.9,29.93,SSW,203,4.0,5.0,84,0.00,,,0.00,Wunderground v.1.15,2013-10-16 16:25:00,
2013-10-16 12:30:00,48.5,44.2,29.93,South,187,4.0,4.0,85,0.00,,,0.00,Wunderground v.1.15,2013-10-16 16:30:00,
2013-10-16 12:35:00,48.5,43.9,29.93,SW,219,5.0,5.0,84,0.00,,,0.00,Wunderground v.1.15,2013-10-16 16:35:00,
2013-10-16 12:40:00,48.5,43.9,29.93,WSW,238,5.0,7.0,84,0.00,,,0.00,Wunderground v.1.15,2013-10-16 16:40:00,
2013-10-16 12:45:00,48.4,43.8,29.93,SW,236,5.0,7.0,84,0.00,,,0.00,Wunderground v.1.15,2013-10-16 16:45:00,
2013-10-16 12:50:00,48.4,43.8,29.93,WSW,241,5.0,8.0,84,0.00,,,0.00,Wunderground v.1.15,2013-10-16 16:50:00,
2013-10-16 13:00:00,48.4,44.1,29.93,South,187,4.0,5.0,85,0.00,,,0.00,Wunderground v.1.15,2013-10-16 17:00:00,
2013-10-16 13:10:00,48.5,44.2,29.93,West,266,5.0,5.0,85,0.00,,,0.00,Wunderground v.1.15,2013-10-16 17:10:00,
2013-10-16 13:15:00,48.5,44.2,29.93,WSW,239,4.0,5.0,85,0.00,,,0.00,Wunderground v.1.15,2013-10-16 17:15:00,
2013-10-16 13:20:00,48.6,44.3,29.93,SW,219,5.0,5.0,85,0.00,,,0.00,Wunderground v.1.15,2013-10-16 17:20:00,
2013-10-16 13:30:00,48.8,44.8,29.92,WSW,253,4.0,4.0,86,0.00,,,0.00,Wunderground v.1.15,2013-10-16 17:30:00,
2013-10-16 13:35:00,48.9,44.6,29.93,SW,218,3.0,4.0,85,0.00,,,0.00,Wunderground v.1.15,2013-10-16 17:35:00,
2013-10-16 13:40:00,49.0,44.7,29.93,SW,218,3.0,4.0,85,0.00,,,0.00,Wunderground v.1.15,2013-10-16 17:40:00,
2013-10-16 13:45:00,48.9,44.6,29.93,West,273,4.0,5.0,85,0.00,,,0.00,Wunderground v.1.15,2013-10-16 17:45:00,
2013-10-16 13:50:00,49.0,44.7,29.93,SW,218,5.0,6.0,85,0.00,,,0.00,Wunderground v.1.15,2013-10-16 17:50:00,
2013-10-16 13:55:00,49.0,44.7,29.93,West,260,4.0,7.0,85,0.00,,,0.00,Wunderground v.1.15,2013-10-16 17:55:00,
2013-10-16 14:00:00,49.1,44.8,29.93,SW,215,4.0,7.0,85,0.00,,,0.00,Wunderground v.1.15,2013-10-16 18:00:00,
2013-10-16 14:10:00,49.2,44.9,29.93,WSW,245,5.0,5.0,85,0.00,,,0.00,Wunderground v.1.15,2013-10-16 18:10:00,
2013-10-16 14:15:00,49.3,45.0,29.92,WSW,239,5.0,5.0,85,0.00,,,0.00,Wunderground v.1.15,2013-10-16 18:15:00,
2013-10-16 14:20:00,49.3,45.3,29.92,WSW,248,4.0,4.0,86,0.00,,,0.00,Wunderground v.1.15,2013-10-16 18:20:00,
2013-10-16 14:25:00,49.4,45.1,29.92,SW,236,4.0,4.0,85,0.00,,,0.00,Wunderground v.1.15,2013-10-16 18:25:00,
2013-10-16 14:35:00,49.6,45.6,29.92,SW,219,4.0,6.0,86,0.00,,,0.00,Wunderground v.1.15,2013-10-16 18:35:00,
2013-10-16 14:40:00,49.7,45.4,29.92,SW,224,4.0,4.0,85,0.00,,,0.00,Wunderground v.1.15,2013-10-16 18:40:00,
2013-10-16 14:45:00,49.9,45.6,29.92,WSW,250,4.0,5.0,85,0.00,,,0.00,Wunderground v.1.15,2013-10-16 18:45:00,
2013-10-16 14:50:00,50.1,45.5,29.92,NW,311,5.0,5.0,84,0.00,,,0.00,Wunderground v.1.15,2013-10-16 18:50:00,
2013-10-16 14:55:00,50.2,45.9,29.91,SW,233,4.0,5.0,85,0.00,,,0.00,Wunderground v.1.15,2013-10-16 18:55:00,
2013-10-16 15:00:00,50.2,45.6,29.91,WSW,253,5.0,5.0,84,0.00,,,0.00,Wunderground v.1.15,2013-10-16 19:00:00,
2013-10-16 15:05:00,50.3,45.6,29.91,West,266,6.0,6.0,84,0.00,,,0.00,Wunderground v.1.15,2013-10-16 19:05:00,
2013-10-16 15:10:00,50.4,45.7,29.92,WSW,248,4.0,4.0,84,0.00,,,0.00,Wunderground v.1.15,2013-10-16 19:10:00,
2013-10-16 15:15:00,50.5,45.8,29.92,SW,218,4.0,5.0,84,0.00,,,0.00,Wunderground v.1.15,2013-10-16 19:15:00,
2013-10-16 15:20:00,50.4,45.7,29.92,WSW,245,4.0,4.0,84,0.00,,,0.00,Wunderground v.1.15,2013-10-16 19:20:00,
2013-10-16 15:25:00,50.5,46.2,29.92,South,191,4.0,4.0,85,0.00,,,0.00,Wunderground v.1.15,2013-10-16 19:25:00,
2013-10-16 15:30:00,50.5,45.8,29.92,SW,236,4.0,8.0,84,0.00,,,0.00,Wunderground v.1.15,2013-10-16 19:30:00,
2013-10-16 15:40:00,50.6,45.9,29.92,WSW,247,4.0,6.0,84,0.00,,,0.00,Wunderground v.1.15,2013-10-16 19:40:00,
2013-10-16 15:45:00,50.5,45.8,29.92,SW,215,5.0,6.0,84,0.00,,,0.00,Wunderground v.1.15,2013-10-16 19:45:00,
2013-10-16 15:50:00,50.4,45.7,29.92,WNW,282,6.0,8.0,84,0.00,,,0.00,Wunderground v.1.15,2013-10-16 19:50:00,
2013-10-16 15:55:00,50.4,45.7,29.92,West,270,6.0,8.0,84,0.00,,,0.00,Wunderground v.1.15,2013-10-16 19:55:00,
2013-10-16 16:00:00,50.4,46.1,29.92,SW,227,4.0,6.0,85,0.00,,,0.00,Wunderground v.1.15,2013-10-16 20:00:00,
2013-10-16 16:10:00,50.3,46.0,29.93,West,262,5.0,5.0,85,0.00,,,0.00,Wunderground v.1.15,2013-10-16 20:10:00,
2013-10-16 16:15:00,50.3,46.0,29.92,WSW,253,4.0,5.0,85,0.00,,,0.00,Wunderground v.1.15,2013-10-16 20:15:00,
2013-10-16 16:20:00,50.2,45.9,29.93,WSW,238,4.0,4.0,85,0.00,,,0.00,Wunderground v.1.15,2013-10-16 20:20:00,
2013-10-16 16:25:00,50.1,45.8,29.92,SW,226,5.0,5.0,85,0.00,,,0.00,Wunderground v.1.15,2013-10-16 20:25:00,
2013-10-16 16:30:00,50.1,46.1,29.92,WSW,239,4.0,4.0,86,0.00,,,0.00,Wunderground v.1.15,2013-10-16 20:30:00,
2013-10-16 16:35:00,50.2,46.2,29.92,SW,231,4.0,4.0,86,0.00,,,0.00,Wunderground v.1.15,2013-10-16 20:35:00,
2013-10-16 16:45:00,50.2,46.2,29.92,West,280,3.0,5.0,86,0.00,,,0.00,Wunderground v.1.15,2013-10-16 20:45:00,
2013-10-16 16:50:00,50.2,46.2,29.92,West,270,3.0,3.0,86,0.00,,,0.00,Wunderground v.1.15,2013-10-16 20:50:00,
2013-10-16 16:55:00,50.3,46.3,29.92,WSW,250,2.0,4.0,86,0.00,,,0.00,Wunderground v.1.15,2013-10-16 20:55:00,
2013-10-16 17:00:00,50.3,46.3,29.92,WNW,290,2.0,3.0,86,0.00,,,0.00,Wunderground v.1.15,2013-10-16 21:00:00,
2013-10-16 17:10:00,50.4,46.4,29.92,WSW,257,3.0,4.0,86,0.00,,,0.00,Wunderground v.1.15,2013-10-16 21:10:00,
2013-10-16 17:15:00,50.4,46.4,29.92,West,264,2.0,5.0,86,0.00,,,0.00,Wunderground v.1.15,2013-10-16 21:15:00,
2013-10-16 17:20:00,50.4,46.4,29.92,West,260,2.0,2.0,86,0.00,,,0.00,Wunderground v.1.15,2013-10-16 21:20:00,
2013-10-16 17:25:00,50.5,46.2,29.92,WSW,243,2.0,2.0,85,0.00,,,0.00,Wunderground v.1.15,2013-10-16 21:25:00,
2013-10-16 17:30:00,50.6,46.3,29.92,West,271,2.0,3.0,85,0.00,,,0.00,Wunderground v.1.15,2013-10-16 21:30:00,
2013-10-16 17:35:00,50.6,46.3,29.92,NW,304,3.0,3.0,85,0.00,,,0.00,Wunderground v.1.15,2013-10-16 21:35:00,
2013-10-16 17:40:00,50.6,46.3,29.92,WSW,245,3.0,3.0,85,0.00,,,0.00,Wunderground v.1.15,2013-10-16 21:40:00,
2013-10-16 17:50:00,50.7,46.4,29.92,SW,236,2.0,4.0,85,0.00,,,0.00,Wunderground v.1.15,2013-10-16 21:50:00,
2013-10-16 17:55:00,50.7,46.4,29.93,SSW,200,2.0,4.0,85,0.00,,,0.00,Wunderground v.1.15,2013-10-16 21:55:00,
2013-10-16 18:00:00,50.7,46.4,29.93,West,260,2.0,2.0,85,0.00,,,0.00,Wunderground v.1.15,2013-10-16 22:00:00,
2013-10-16 18:10:00,50.6,46.3,29.93,WSW,256,2.0,4.0,85,0.00,,,0.00,Wunderground v.1.15,2013-10-16 22:10:00,
2013-10-16 18:20:00,50.6,46.3,29.93,WSW,257,2.0,2.0,85,0.00,,,0.00,Wunderground v.1.15,2013-10-16 22:20:00,
2013-10-16 18:25:00,50.6,46.3,29.93,West,274,3.0,3.0,85,0.00,,,0.00,Wunderground v.1.15,2013-10-16 22:25:00,
2013-10-16 18:30:00,50.5,46.2,29.93,WSW,253,2.0,2.0,85,0.00,,,0.00,Wunderground v.1.15,2013-10-16 22:30:00,
2013-10-16 18:35:00,50.5,46.2,29.93,SW,219,2.0,2.0,85,0.00,,,0.00,Wunderground v.1.15,2013-10-16 22:35:00,
2013-10-16 18:40:00,50.5,46.2,29.93,WSW,239,2.0,2.0,85,0.00,,,0.00,Wunderground v.1.15,2013-10-16 22:40:00,
2013-10-16 18:45:00,50.5,46.2,29.93,West,262,2.0,3.0,85,0.00,,,0.00,Wunderground v.1.15,2013-10-16 22:45:00,
2013-10-16 18:50:00,50.4,46.1,29.93,South,188,2.0,3.0,85,0.00,,,0.00,Wunderground v.1.15,2013-10-16 22:50:00,
2013-10-16 18:55:00,50.4,46.1,29.93,SSW,207,2.0,3.0,85,0.00,,,0.00,Wunderground v.1.15,2013-10-16 22:55:00,
2013-10-16 19:00:00,50.4,46.4,29.93,SW,231,2.0,2.0,86,0.00,,,0.00,Wunderground v.1.15,2013-10-16 23:00:00,
2013-10-16 19:10:00,50.4,46.1,29.93,WSW,253,2.0,2.0,85,0.00,,,0.00,Wunderground v.1.15,2013-10-16 23:10:00,
2013-10-16 19:15:00,50.3,46.3,29.94,WSW,250,2.0,2.0,86,0.00,,,0.00,Wunderground v.1.15,2013-10-16 23:15:00,
2013-10-16 19:20:00,50.3,46.3,29.94,West,273,1.0,1.0,86,0.00,,,0.00,Wunderground v.1.15,2013-10-16 23:20:00,
2013-10-16 19:25:00,50.3,46.3,29.94,SW,236,1.0,2.0,86,0.00,,,0.00,Wunderground v.1.15,2013-10-16 23:25:00,
2013-10-16 19:30:00,50.2,46.2,29.94,SW,223,1.0,2.0,86,0.00,,,0.00,Wunderground v.1.15,2013-10-16 23:30:00,
2013-10-16 19:35:00,50.2,46.2,29.94,SW,224,1.0,2.0,86,0.00,,,0.00,Wunderground v.1.15,2013-10-16 23:35:00,
2013-10-16 19:40:00,50.2,46.2,29.94,WSW,253,1.0,4.0,86,0.00,,,0.00,Wunderground v.1.15,2013-10-16 23:40:00,
2013-10-16 19:45:00,50.2,46.2,29.94,SW,233,1.0,4.0,86,0.00,,,0.00,Wunderground v.1.15,2013-10-16 23:45:00,
2013-10-16 19:55:00,50.1,46.4,29.95,WSW,245,2.0,4.0,87,0.00,,,0.00,Wunderground v.1.15,2013-10-16 23:55:00,
2013-10-16 20:00:00,50.1,46.4,29.95,SW,224,2.0,4.0,87,0.00,,,0.00,Wunderground v.1.15,2013-10-17 00:00:00,
2013-10-16 20:10:00,50.1,46.4,29.95,SW,225,2.0,2.0,87,0.00,,,0.00,Wunderground v.1.15,2013-10-17 00:10:00,
2013-10-16 20:15:00,50.0,46.3,29.95,SW,224,1.0,2.0,87,0.00,,,0.00,Wunderground v.1.15,2013-10-17 00:15:00,
2013-10-16 20:20:00,49.9,46.5,29.95,WSW,246,2.0,3.0,88,0.00,,,0.00,Wunderground v.1.15,2013-10-17 00:20:00,
2013-10-16 20:30:00,49.9,46.5,29.95,SW,231,4.0,6.0,88,0.00,,,0.00,Wunderground v.1.15,2013-10-17 00:30:00,
2013-10-16 20:35:00,49.8,46.4,29.95,SW,224,5.0,6.0,88,0.00,,,0.00,Wunderground v.1.15,2013-10-17 00:35:00,
2013-10-16 20:40:00,49.7,46.6,29.95,WNW,285,4.0,4.0,89,0.00,,,0.00,Wunderground v.1.15,2013-10-17 00:40:00,
2013-10-16 20:45:00,49.6,46.5,29.95,WSW,252,3.0,4.0,89,0.00,,,0.00,Wunderground v.1.15,2013-10-17 00:45:00,
2013-10-16 20:50:00,49.5,46.4,29.95,West,267,2.0,2.0,89,0.00,,,0.00,Wunderground v.1.15,2013-10-17 00:50:00,
2013-10-16 21:00:00,49.5,46.4,29.95,WNW,302,3.0,3.0,89,0.00,,,0.00,Wunderground v.1.15,2013-10-17 01:00:00,
2013-10-16 21:10:00,49.4,46.3,29.96,SW,236,2.0,4.0,89,0.00,,,0.00,Wunderground v.1.15,2013-10-17 01:10:00,
2013-10-16 21:15:00,49.4,46.3,29.96,SW,215,2.0,4.0,89,0.00,,,0.00,Wunderground v.1.15,2013-10-17 01:15:00,
2013-10-16 21:20:00,49.4,46.3,29.96,SW,226,3.0,4.0,89,0.00,,,0.00,Wunderground v.1.15,2013-10-17 01:20:00,
2013-10-16 21:25:00,49.5,46.4,29.96,SW,225,2.0,4.0,89,0.00,,,0.00,Wunderground v.1.15,2013-10-17 01:25:00,
2013-10-16 21:35:00,49.5,46.4,29.96,SW,232,3.0,3.0,89,0.00,,,0.00,Wunderground v.1.15,2013-10-17 01:35:00,
2013-10-16 21:40:00,49.5,46.4,29.97,SW,225,2.0,2.0,89,0.00,,,0.00,Wunderground v.1.15,2013-10-17 01:40:00,
2013-10-16 21:45:00,49.5,46.4,29.97,West,275,1.0,2.0,89,0.00,,,0.00,Wunderground v.1.15,2013-10-17 01:45:00,
2013-10-16 21:50:00,49.5,46.4,29.97,SW,236,2.0,3.0,89,0.00,,,0.00,Wunderground v.1.15,2013-10-17 01:50:00,
2013-10-16 21:55:00,49.5,46.4,29.97,SSW,212,2.0,3.0,89,0.00,,,0.00,Wunderground v.1.15,2013-10-17 01:55:00,
2013-10-16 22:00:00,49.5,46.4,29.97,WSW,252,2.0,2.0,89,0.00,,,0.00,Wunderground v.1.15,2013-10-17 02:00:00,
2013-10-16 22:10:00,49.4,46.3,29.97,WSW,250,1.0,2.0,89,0.00,,,0.00,Wunderground v.1.15,2013-10-17 02:10:00,
2013-10-16 22:15:00,49.4,46.3,29.97,SSW,202,2.0,2.0,89,0.00,,,0.00,Wunderground v.1.15,2013-10-17 02:15:00,
2013-10-16 22:20:00,49.4,46.3,29.97,West,269,2.0,2.0,89,0.00,,,0.00,Wunderground v.1.15,2013-10-17 02:20:00,
2013-10-16 22:25:00,49.3,46.2,29.97,SW,233,2.0,2.0,89,0.00,,,0.00,Wunderground v.1.15,2013-10-17 02:25:00,
2013-10-16 22:30:00,49.3,46.5,29.97,SW,236,2.0,2.0,90,0.00,,,0.00,Wunderground v.1.15,2013-10-17 02:30:00,
2013-10-16 22:35:00,49.3,46.5,29.97,WSW,257,1.0,2.0,90,0.00,,,0.00,Wunderground v.1.15,2013-10-17 02:35:00,
2013-10-16 22:40:00,49.3,46.5,29.97,WSW,245,2.0,3.0,90,0.00,,,0.00,Wunderground v.1.15,2013-10-17 02:40:00,
2013-10-16 22:50:00,49.3,46.5,29.98,SW,232,3.0,3.0,90,0.00,,,0.00,Wunderground v.1.15,2013-10-17 02:50:00,
2013-10-16 22:55:00,49.3,46.5,29.97,West,260,2.0,3.0,90,0.00,,,0.00,Wunderground v.1.15,2013-10-17 02:55:00,
2013-10-16 23:00:00,49.3,46.5,29.97,WNW,287,1.0,2.0,90,0.00,,,0.00,Wunderground v.1.15,2013-10-17 03:00:00,
2013-10-16 23:05:00,49.3,46.5,29.97,WSW,255,1.0,2.0,90,0.00,,,0.00,Wunderground v.1.15,2013-10-17 03:05:00,
2013-10-16 23:10:00,49.3,46.2,29.97,SW,224,2.0,2.0,89,0.00,,,0.00,Wunderground v.1.15,2013-10-17 03:10:00,
2013-10-16 23:15:00,49.3,46.2,29.97,WSW,255,2.0,2.0,89,0.00,,,0.00,Wunderground v.1.15,2013-10-17 03:15:00,
2013-10-16 23:20:00,49.3,46.5,29.97,SSW,205,2.0,3.0,90,0.00,,,0.00,Wunderground v.1.15,2013-10-17 03:20:00,
2013-10-16 23:25:00,49.3,46.5,29.97,WSW,250,2.0,3.0,90,0.00,,,0.00,Wunderground v.1.15,2013-10-17 03:25:00,
2013-10-16 23:30:00,49.2,46.4,29.97,WNW,282,3.0,3.0,90,0.00,,,0.00,Wunderground v.1.15,2013-10-17 03:30:00,
2013-10-16 23:40:00,49.1,46.6,29.97,West,275,2.0,3.0,91,0.00,,,0.00,Wunderground v.1.15,2013-10-17 03:40:00,
2013-10-16 23:45:00,49.0,46.5,29.97,WSW,238,3.0,5.0,91,0.00,,,0.00,Wunderground v.1.15,2013-10-17 03:45:00,
2013-10-16 23:50:00,48.9,46.7,29.97,West,277,3.0,4.0,92,0.00,,,0.00,Wunderground v.1.15,2013-10-17 03:50:00,
2013-10-16 23:55:00,48.7,46.5,29.97,WNW,287,3.0,4.0,92,0.00,,,0.00,Wunderground v.1.15,2013-10-17 03:55:00,